Flight Track Log - Related Links

Times and Time Zones

All times are in EDT time to prevent confusion due to time zone crossing. See the DAL268 flight status page for this flight to view local times or setup timezone preferences in your user account.

Time Position Orientation Groundspeed Altitude Reporting Facility
EDT Latitude Longitude Course Direction KTS MPH feet Rate Location/Type
Fri 23:46:24 40.6380 -73.7790 North  Level FlightAware ADS-B
Fri 23:47:30 40.6370 -73.7790 180° South 12 14 36 Level FlightAware ADS-B
Fri 23:50:00 40.5833 -73.3303 90° East  Level FlightAware Approximate
Fri 23:51:00 40.5593 -73.1519 97° East  Level FlightAware Approximate
Fri 23:52:00 40.5638 -72.9725 57° Northeast  Level FlightAware Approximate
Fri 23:52:24 40.6360 -73.7790 57° Northeast 10 12  Level FlightAware ADS-B
Fri 23:53:06 40.6360 -73.7780 90° East 17 20 62 Level FlightAware ADS-B
Fri 23:53:52 40.6350 -73.7770 143° Southeast 16 18 68 Level FlightAware ADS-B
Fri 23:54:20 40.6360 -73.7760 37° Northeast 18 21 76 Level FlightAware ADS-B
Fri 23:54:54 40.6360 -73.7750 90° East 18 21 82 Level FlightAware ADS-B
Fri 23:55:54 40.6350 -73.7730 123° Southeast 22 25 90 Level FlightAware ADS-B
Fri 23:56:34 40.6340 -73.7710 123° Southeast 20 23 110 Level FlightAware ADS-B
Fri 23:57:14 40.6330 -73.7700 143° Southeast 20 23 129 Level FlightAware ADS-B
Fri 23:58:16 40.6300 -73.7700 180° South 30 35 156 Level FlightAware ADS-B
Fri 23:58:56 40.6290 -73.7720 237° Southwest 25 29 231 Level FlightAware ADS-B
Fri 23:59:36 40.6290 -73.7730 270° West 25 29 333 Level FlightAware ADS-B
Sat 00:00:26 40.6420 -73.8020 301° West 165 190 500 1,200 Climbing FlightAware ADS-B
Sat 00:00:46 40.6460 -73.8200 286° West 160 184 1,400 1,714 Climbing FlightAware ADS-B
Sat 00:01:22 40.6310 -73.8580 243° Southwest 227 261 2,100 1,404 Climbing FlightAware ADS-B
Sat 00:01:33 40.6220 -73.8720 230° Southwest 241 277 2,500 1,111 Climbing FlightAware ADS-B
Sat 00:01:49 40.6090 -73.8900 226° Southwest 265 305 2,600 621 Climbing FlightAware ADS-B
Sat 00:02:02 40.5950 -73.8990 206° Southwest 286 329 2,800 1,200 Climbing FlightAware ADS-B
Sat 00:02:14 40.5780 -73.9010 185° South 303 349 3,100 2,100 Climbing FlightAware ADS-B
Sat 00:02:42 40.5430 -73.8920 169° South 306 352 4,200 2,267 Climbing FlightAware ADS-B
Sat 00:02:59 40.5189 -73.8706 146° Southeast 305 351 4,800 2,333 Climbing FlightAware ADS-B
Sat 00:03:00 40.5180 -73.8692 130° Southeast 308 354 4,900 3,600 Climbing FlightAware ADS-B
Sat 00:03:04 40.5152 -73.8633 122° Southeast 304 350 5,100 3,429 Climbing FlightAware ADS-B
Sat 00:03:07 40.5127 -73.8586 125° Southeast 299 344 5,300 4,000 Climbing FlightAware ADS-B
Sat 00:03:10 40.5109 -73.8540 117° Southeast 294 338 5,500 3,692 Climbing FlightAware ADS-B
Sat 00:03:20 40.5072 -73.8390 108° East 286 329 6,100 2,800 Climbing FlightAware ADS-B
Sat 00:03:25 40.5065 -73.8287 95° East 288 331 6,200 1,500 Climbing FlightAware ADS-B
Sat 00:03:28 40.5064 -73.8232 91° East 291 335 6,300 1,800 Climbing FlightAware ADS-B
Sat 00:03:35 40.5077 -73.8108 82° East 297 342 6,500 2,000 Climbing FlightAware ADS-B
Sat 00:03:40 40.5095 -73.8021 75° East 300 345 6,700 3,000 Climbing FlightAware ADS-B
Sat 00:03:53 40.5143 -73.7793 75° East 297 342 7,400 2,813 Climbing FlightAware ADS-B
Sat 00:04:12 40.5192 -73.7453 79° East 302 348 8,200 2,471 Climbing FlightAware ADS-B
Sat 00:04:27 40.5214 -73.7178 84° East 306 352 8,800 2,516 Climbing FlightAware ADS-B
Sat 00:04:43 40.5227 -73.6879 87° East 309 356 9,500 2,478 Climbing FlightAware ADS-B
Sat 00:05:13 40.5264 -73.6315 85° East 315 362 10,700 1,935 Climbing FlightAware ADS-B
Sat 00:05:45 40.5301 -73.5674 86° East 337 388 11,500 1,645 Climbing FlightAware ADS-B
Sat 00:06:15 40.5334 -73.5046 86° East 354 407 12,400 1,574 Climbing FlightAware ADS-B
Sat 00:06:46 40.5374 -73.4359 86° East 377 434 13,100 1,935 Climbing FlightAware ADS-B
Sat 00:07:17 40.5414 -73.3636 86° East 384 442 14,400 2,710 Climbing FlightAware ADS-B
Sat 00:07:48 40.5451 -73.2945 86° East 379 436 15,900 2,769 Climbing FlightAware ADS-B
Sat 00:08:09 40.5481 -73.2440 86° East 379 436 16,800 2,400 Climbing FlightAware ADS-B
Sat 00:08:18 40.5512 -73.2232 79° East 387 445 17,100 2,000 Climbing FlightAware ADS-B
Sat 00:08:27 40.5568 -73.2029 70° East 397 457 17,400 1,909 Climbing FlightAware ADS-B
Sat 00:08:40 40.5685 -73.1748 61° Northeast 407 468 17,800 2,250 Climbing FlightAware ADS-B
Sat 00:08:43 40.5719 -73.1686 54° Northeast 411 473 18,000 2,182 Climbing FlightAware ADS-B
Sat 00:08:51 40.5811 -73.1549 49° Northeast 416 479 18,200 1,714 Climbing FlightAware ADS-B
Sat 00:08:57 40.5895 -73.1421 49° Northeast 421 484 18,400 1,895 Climbing FlightAware ADS-B
Sat 00:09:10 40.6092 -73.1222 37° Northeast 432 497 18,800 1,050 Climbing FlightAware ADS-B
Sat 00:09:37 40.6560 -73.0799 34° Northeast 452 520 19,100 842 Climbing FlightAware ADS-B
Sat 00:10:07 40.7079 -73.0297 36° Northeast 466 536 19,600 885 Climbing FlightAware ADS-B
Sat 00:10:38 40.7586 -72.9736 40° Northeast 481 554 20,000 1,082 Climbing FlightAware ADS-B
Sat 00:11:08 40.8092 -72.9148 41° Northeast 490 564 20,700 1,400 Climbing FlightAware ADS-B
Sat 00:11:38 40.8611 -72.8524 42° Northeast 499 574 21,400 1,364 Climbing FlightAware ADS-B
Sat 00:12:14 40.9230 -72.7781 42° Northeast 507 583 22,200 1,364 Climbing FlightAware ADS-B
Sat 00:12:44 40.9758 -72.7153 42° Northeast 515 593 22,900 1,475 Climbing FlightAware ADS-B
Sat 00:13:15 41.0322 -72.6493 41° Northeast 520 598 23,700 1,286 Climbing FlightAware ADS-B
Sat 00:13:54 41.1000 -72.5670 42° Northeast 528 608 24,400 987 Climbing FlightAware ADS-B
Sat 00:14:34 41.1710 -72.4830 42° Northeast 542 624 25,000 1,111 Climbing FlightAware ADS-B
Sat 00:15:15 41.2420 -72.3950 43° Northeast 548 631 25,900 1,275 Climbing FlightAware ADS-B
Sat 00:15:54 41.3230 -72.2970 42° Northeast 555 639 26,700 1,214 Climbing FlightAware ADS-B
Sat 00:16:39 41.4100 -72.1930 42° Northeast 561 646 27,600 1,129 Climbing FlightAware ADS-B
Sat 00:17:19 41.4860 -72.1010 42° Northeast 567 652 28,300 1,412 Climbing FlightAware ADS-B
Sat 00:18:04 41.5740 -71.9930 43° Northeast 562 647 29,600 1,553 Climbing FlightAware ADS-B
Sat 00:18:44 41.6490 -71.9010 42° Northeast 559 643 30,500 988 Climbing FlightAware ADS-B
Sat 00:19:29 41.7350 -71.7940 43° Northeast 557 641 31,000 353 Climbing FlightAware ADS-B
Sat 00:20:09 41.8090 -71.7050 42° Northeast 556 640 31,000  Level FlightAware ADS-B
Sat 00:20:59 41.9030 -71.5850 44° Northeast 555 639 31,000  Level FlightAware ADS-B
Sat 00:21:39 41.9810 -71.4890 42° Northeast 554 638 31,000  Level FlightAware ADS-B
Sat 00:22:19 42.0530 -71.4000 43° Northeast 555 639 31,000  Level FlightAware ADS-B
Sat 00:23:05 42.1440 -71.2870 43° Northeast 556 640 31,000  Level FlightAware ADS-B
Sat 00:23:46 42.2200 -71.1890 44° Northeast 552 635 31,000  Level FlightAware ADS-B
Sat 00:24:30 42.2990 -71.0890 43° Northeast 553 636 31,000  Level FlightAware ADS-B
Sat 00:25:05 42.3700 -71.0010 42° Northeast 557 641 31,000  Level FlightAware ADS-B
Sat 00:25:55 42.4630 -70.8820 43° Northeast 554 638 31,000  Level FlightAware ADS-B
Sat 00:26:35 42.5360 -70.7870 44° Northeast 551 634 31,000  Level FlightAware ADS-B
Sat 00:27:19 42.6200 -70.6800 43° Northeast 550 633 31,000  Level FlightAware ADS-B
Sat 00:28:03 42.7010 -70.5750 44° Northeast 549 632 31,000  Level FlightAware ADS-B
Sat 00:28:43 42.7740 -70.4820 43° Northeast 549 632 31,000  Level FlightAware ADS-B
Sat 00:29:27 42.8540 -70.3770 44° Northeast 548 631 31,000  Level FlightAware ADS-B
Sat 00:30:14 42.9390 -70.2670 43° Northeast 550 633 31,000  Level FlightAware ADS-B
Sat 00:31:03 43.0320 -70.1470 43° Northeast 550 633 31,000  Level FlightAware ADS-B
Sat 00:31:37 43.0870 -70.0720 45° Northeast 545 627 31,000  Level FlightAware ADS-B
Sat 00:32:25 43.1800 -69.9510 43° Northeast 545 627 31,000  Level FlightAware ADS-B
Sat 00:33:09 43.2610 -69.8420 44° Northeast 550 633 31,000  Level FlightAware ADS-B
Sat 00:33:47 43.3300 -69.7520 43° Northeast 545 627 31,000  Level FlightAware ADS-B
Sat 00:34:42 43.4290 -69.6210 44° Northeast 547 629 31,000  Level FlightAware ADS-B
Sat 00:35:31 43.5050 -69.5200 44° Northeast 547 629 31,000  Level FlightAware ADS-B
Sat 00:36:25 43.6150 -69.3720 44° Northeast 551 634 31,000  Level FlightAware ADS-B
Sat 00:37:05 43.6930 -69.2640 45° Northeast 558 642 31,000  Level FlightAware ADS-B
Sat 00:37:45 43.7700 -69.1620 44° Northeast 559 643 31,000  Level FlightAware ADS-B
Sat 00:38:26 43.8330 -69.0760 45° Northeast 553 636 31,000  Level FlightAware ADS-B
Sat 00:39:11 43.9260 -68.9480 45° Northeast 560 644 31,000 133 Level FlightAware ADS-B
Sat 00:39:56 44.0070 -68.8370 45° Northeast 563 648 31,200 643 Climbing FlightAware ADS-B
Sat 00:40:35 44.0820 -68.7350 44° Northeast 566 651 31,900 1,012 Climbing FlightAware ADS-B
Sat 00:41:19 44.1670 -68.6160 45° Northeast 569 655 32,600 786 Climbing FlightAware ADS-B
Sat 00:41:59 44.2380 -68.5180 45° Northeast 569 655 33,000 286 Climbing FlightAware ADS-B
Sat 00:42:43 44.3240 -68.3990 45° Northeast 568 654 33,000  Level FlightAware ADS-B
Sat 00:43:23 44.3950 -68.3000 45° Northeast 568 654 33,000  Level FlightAware ADS-B
Sat 00:43:49 44.4450 -68.2300 45° Northeast 567 652 33,000  Level FlightAware ADS-B
Sat 00:44:05 44.4750 -68.1850 47° Northeast 567 652 33,000  Level FlightAware ADS-B
Sat 00:44:50 44.5580 -68.0710 44° Northeast 567 652 33,000  Level FlightAware ADS-B
Sat 00:45:25 44.6220 -67.9790 46° Northeast 567 652 33,000  Level FlightAware ADS-B
Sat 00:46:25 44.7340 -67.8190 45° Northeast 569 655 33,000  Level FlightAware ADS-B
Sat 00:47:11 44.8180 -67.7000 45° Northeast 570 656 33,000  Level FlightAware ADS-B
Sat 00:47:52 44.8940 -67.5910 45° Northeast 570 656 33,000  Level FlightAware ADS-B
Sat 00:48:25 44.9540 -67.5040 46° Northeast 570 656 33,000  Level FlightAware ADS-B
Sat 00:49:07 45.0330 -67.3890 46° Northeast 570 656 33,000  Level FlightAware ADS-B
Sat 00:49:55 45.1190 -67.2630 46° Northeast 565 650 33,000  Level FlightAware ADS-B
Sat 00:50:39 45.1990 -67.1480 45° Northeast 570 656 33,000  Level FlightAware ADS-B
Sat 00:51:20 45.2760 -67.0350 46° Northeast 564 649 33,000  Level FlightAware ADS-B
Sat 00:52:00 45.3480 -66.9300 46° Northeast 565 650 33,000  Level FlightAware ADS-B
Sat 00:52:39 45.4200 -66.8220 46° Northeast 563 648 33,000  Level FlightAware ADS-B
Sat 00:53:25 45.5040 -66.6980 46° Northeast 563 648 33,000  Level FlightAware ADS-B
Sat 00:54:05 45.5760 -66.5920 46° Northeast 563 648 33,000  Level FlightAware ADS-B
Sat 00:54:50 45.6580 -66.4670 47° Northeast 561 646 33,000  Level FlightAware ADS-B
Sat 00:55:45 45.7590 -66.3160 46° Northeast 566 651 33,000  Level FlightAware ADS-B
Sat 00:56:31 45.8420 -66.1900 47° Northeast 567 652 33,000  Level FlightAware ADS-B
Sat 00:57:11 45.9140 -66.0810 46° Northeast 568 654 33,000  Level FlightAware ADS-B
Sat 00:58:05 46.0090 -65.9350 47° Northeast 568 654 33,000  Level FlightAware ADS-B
Sat 00:58:45 46.0750 -65.8360 46° Northeast 567 652 33,000  Level FlightAware ADS-B
Sat 00:59:38 46.1700 -65.6910 47° Northeast 566 651 33,000  Level FlightAware ADS-B
Sat 01:00:26 46.2440 -65.5790 46° Northeast 566 651 33,000  Level FlightAware ADS-B
Sat 01:01:01 46.2980 -65.4980 46° Northeast 566 651 33,000  Level FlightAware ADS-B
Sat 01:01:49 46.3730 -65.3870 46° Northeast 566 651 33,000  Level FlightAware ADS-B
Sat 01:02:26 46.4300 -65.3010 46° Northeast 566 651 33,000  Level FlightAware ADS-B
Sat 01:03:15 46.5060 -65.1870 46° Northeast 566 651 33,000  Level FlightAware ADS-B
Sat 01:03:52 46.5630 -65.1010 46° Northeast 566 651 33,000  Level FlightAware ADS-B
Sat 01:04:41 46.6380 -64.9870 46° Northeast 566 651 33,000  Level FlightAware ADS-B
Sat 01:05:19 46.6970 -64.8980 46° Northeast 566 651 33,000  Level FlightAware ADS-B
Sat 01:05:57 46.7560 -64.8090 46° Northeast 566 651 33,000  Level FlightAware ADS-B
Sat 01:06:46 46.8320 -64.6950 46° Northeast 566 651 33,000  Level FlightAware ADS-B
Sat 01:07:22 46.8870 -64.6110 46° Northeast 566 651 33,000  Level FlightAware ADS-B
Sat 01:08:10 46.9620 -64.4980 46° Northeast 566 651 33,000  Level FlightAware ADS-B
Sat 01:08:46 47.0170 -64.4130 46° Northeast 566 651 33,000  Level FlightAware ADS-B
Sat 01:09:07 47.1667 -64.0833 46° Northeast 560 644 33,000  Level Moncton Center
Sat 01:10:07 47.2667 -63.8833 54° Northeast 560 644 33,000  Level Moncton Center
Sat 01:11:07 47.3667 -63.7000 51° Northeast 560 644 33,000  Level Moncton Center
Sat 01:12:07 47.4667 -63.5333 48° Northeast 560 644 33,000  Level Moncton Center
Sat 01:13:07 47.5667 -63.3500 51° Northeast 560 644 33,000  Level Moncton Center
Sat 01:14:07 47.6667 -63.1833 48° Northeast 560 644 33,000  Level Moncton Center
Sat 01:15:07 47.7667 -63.0000 51° Northeast 560 644 33,000  Level Moncton Center
Sat 01:16:07 47.8500 -62.8333 53° Northeast 560 644 33,000  Level Moncton Center
Sat 01:17:07 47.9500 -62.6167 55° Northeast 560 644 33,000  Level Moncton Center
Sat 01:18:07 48.0500 -62.4667 45° Northeast 560 644 33,000  Level Moncton Center
Sat 01:19:07 48.1667 -62.2667 49° Northeast 560 644 33,000  Level Moncton Center
Sat 01:20:07 48.2500 -62.0833 56° Northeast 560 644 33,000  Level Moncton Center
Sat 01:21:07 48.3500 -61.9000 51° Northeast 570 656 33,000  Level Moncton Center
Sat 01:22:07 48.4500 -61.7167 51° Northeast 560 644 33,000  Level Moncton Center
Sat 01:23:07 48.5500 -61.5333 50° Northeast 560 644 33,000  Level Moncton Center
Sat 01:24:07 48.6500 -61.3333 53° Northeast 570 656 33,000  Level Moncton Center
Sat 01:25:07 48.7500 -61.1500 50° Northeast 570 656 33,000  Level Moncton Center
Sat 01:26:07 48.8333 -60.9667 55° Northeast 570 656 33,000  Level Moncton Center
Sat 01:27:07 48.9333 -60.7833 50° Northeast 570 656 33,000  Level Moncton Center
Sat 01:32:17 49.4440 -59.7920 50° Northeast 567 652 33,000  Level FlightAware ADS-B
Sat 01:33:03 49.5110 -59.6540 53° Northeast 567 652 33,000  Level FlightAware ADS-B
Sat 01:33:43 49.5760 -59.5210 53° Northeast 565 650 33,000  Level FlightAware ADS-B
Sat 01:34:20 49.6260 -59.4180 53° Northeast 565 650 33,000  Level FlightAware ADS-B
Sat 01:36:17 49.7170 -59.2270 54° Northeast 565 650 33,000  Level FlightAware ADS-B
Sat 01:37:00 49.7820 -59.0910 53° Northeast 564 649 33,000  Level FlightAware ADS-B
Sat 01:37:35 49.8290 -58.9950 53° Northeast 564 649 33,000  Level FlightAware ADS-B
Sat 01:38:23 49.8930 -58.8630 53° Northeast 564 649 33,000  Level FlightAware ADS-B
Sat 01:39:19 50.0850 -58.4440 54° Northeast 564 649 33,000  Level FlightAware ADS-B
Sat 01:40:03 50.1610 -58.2800 54° Northeast 565 650 33,000  Level FlightAware ADS-B
Sat 01:40:23 50.1900 -58.2140 56° Northeast 565 650 33,000  Level FlightAware ADS-B
Sat 01:41:13 50.2670 -58.0480 54° Northeast 564 649 33,000  Level FlightAware ADS-B
Sat 01:41:53 50.3270 -57.9150 55° Northeast 563 648 33,000  Level FlightAware ADS-B
Sat 01:42:33 50.3860 -57.7860 54° Northeast 563 648 33,000  Level FlightAware ADS-B
Sat 01:43:23 50.4520 -57.6420 54° Northeast 563 648 33,000  Level FlightAware ADS-B
Sat 01:44:12 50.5150 -57.5040 54° Northeast 563 648 33,000  Level FlightAware ADS-B
Sat 01:44:48 50.5620 -57.4030 54° Northeast 563 648 33,000  Level FlightAware ADS-B
Sat 01:46:22 50.6840 -57.1370 54° Northeast 563 648 33,000  Level FlightAware ADS-B
Sat 01:46:58 50.7310 -57.0350 54° Northeast 563 648 33,000  Level FlightAware ADS-B
Sat 01:47:46 50.7940 -56.8990 54° Northeast 563 648 33,000  Level FlightAware ADS-B
Sat 01:48:22 50.8410 -56.7970 54° Northeast 563 648 33,000  Level FlightAware ADS-B
Sat 01:49:10 50.9030 -56.6610 54° Northeast 563 648 33,000  Level FlightAware ADS-B
Sat 01:49:46 50.9500 -56.5590 54° Northeast 563 648 33,000  Level FlightAware ADS-B
Sat 01:50:23 50.9980 -56.4530 54° Northeast 563 648 33,000  Level FlightAware ADS-B
Sat 01:51:37 51.0940 -56.2420 54° Northeast 563 648 33,000  Level FlightAware ADS-B
Sat 01:52:26 51.1580 -56.1030 54° Northeast 563 648 33,000  Level FlightAware ADS-B
Sat 01:52:43 51.2667 -55.7000 54° Northeast 570 656 33,000  Level Moncton Center
Sat 01:53:50 51.3833 -55.4333 55° Northeast 570 656 33,000  Level Gander Center
Sat 01:54:50 51.4500 -55.2333 62° Northeast 570 656 33,000  Level Gander Center
Sat 01:55:50 51.5333 -55.0167 58° Northeast 570 656 33,000  Level Gander Center
Sat 01:56:50 51.6333 -54.8167 51° Northeast 570 656 33,000  Level Gander Center
Sat 01:57:50 51.7167 -54.5833 60° Northeast 570 656 33,000  Level Gander Center
Sat 01:58:50 51.8000 -54.3500 60° Northeast 570 656 33,000  Level Gander Center
Sat 01:59:50 51.9000 -54.1500 51° Northeast 570 656 33,000  Level Gander Center
Sat 02:00:50 51.9667 -53.9500 62° Northeast 560 644 33,000  Level Gander Center
Sat 02:01:50 52.0667 -53.7167 55° Northeast 570 656 33,000  Level Gander Center
Sat 02:02:50 52.1333 -53.5000 63° Northeast 570 656 33,000  Level Gander Center
Sat 02:03:50 52.2167 -53.2667 60° Northeast 570 656 33,000  Level Gander Center
Sat 02:04:50 52.2833 -53.0500 63° Northeast 560 644 33,000  Level Gander Center
Sat 02:05:50 52.3333 -52.8500 68° East 570 656 33,000  Level Gander Center
Sat 02:06:50 52.4000 -52.5500 70° East 580 667 33,000  Level Gander Center
Sat 02:07:50 52.4500 -52.3167 71° East 570 656 33,000  Level Gander Center
Sat 02:08:50 52.5000 -52.0833 71° East 570 656 33,000  Level Gander Center
Sat 02:09:50 52.5833 -51.7500 68° East 570 656 33,000  Level Gander Center
Sat 02:10:50 52.6000 -51.6000 80° East 570 656 33,000  Level Gander Center
Sat 02:12:00 52.6672 -51.3391 67° East  Level FlightAware Approximate
Sat 02:12:47 52.7333 -51.1000 67° East 370 426 33,000  Level Gander Center
Sat 02:13:47 52.7833 -50.8667 70° East 530 610 33,000  Level Gander Center
Sat 02:14:47 52.8333 -50.6500 69° East 580 667 33,000  Level Gander Center
Sat 02:15:47 52.8833 -50.3667 74° East 570 656 33,000  Level Gander Center
Sat 02:16:47 52.9167 -50.1833 73° East 570 656 33,000  Level Gander Center
Sat 02:17:43 52.9833 -49.9167 67° East 360 414 33,000 12 Level Gander Center
Sat 02:19:00 53.0288 -49.6114 76° East  Level FlightAware Approximate
Sat 02:26:00 53.2630 -47.9352 76° East  Level FlightAware Approximate
Sat 02:27:00 53.2946 -47.6943 78° East  Level FlightAware Approximate
Sat 02:28:00 53.3256 -47.4530 78° East  Level FlightAware Approximate
Sat 02:29:00 53.3562 -47.2114 78° East  Level FlightAware Approximate
Sat 02:30:00 53.3862 -46.9694 78° East  Level FlightAware Approximate
Sat 02:31:00 53.4158 -46.7271 78° East  Level FlightAware Approximate
Sat 02:32:00 53.4449 -46.4845 79° East  Level FlightAware Approximate
Sat 02:33:00 53.4732 -46.2405 80° East  Level FlightAware Approximate
Sat 02:34:00 53.4995 -45.9966 80° East  Level FlightAware Approximate
Sat 02:35:00 53.5253 -45.7525 80° East  Level FlightAware Approximate
Sat 02:36:00 53.5506 -45.5080 80° East  Level FlightAware Approximate
Sat 02:37:00 53.5754 -45.2633 80° East  Level FlightAware Approximate
Sat 02:38:00 53.5998 -45.0178 80° East  Level FlightAware Approximate
Sat 02:39:00 53.6236 -44.7721 81° East  Level FlightAware Approximate
Sat 02:40:00 53.6470 -44.5261 81° East  Level FlightAware Approximate
Sat 02:41:00 53.6698 -44.2798 81° East  Level FlightAware Approximate
Sat 02:42:00 53.6921 -44.0332 81° East  Level FlightAware Approximate
Sat 02:43:00 53.7140 -43.7864 81° East  Level FlightAware Approximate
Sat 02:44:00 53.7353 -43.5394 82° East  Level FlightAware Approximate
Sat 02:45:00 53.7561 -43.2920 82° East  Level FlightAware Approximate
Sat 02:46:00 53.7764 -43.0445 82° East  Level FlightAware Approximate
Sat 02:47:00 53.7962 -42.7967 82° East  Level FlightAware Approximate
Sat 02:48:00 53.8155 -42.5487 82° East  Level FlightAware Approximate
Sat 02:49:00 53.8358 -42.3008 82° East  Level FlightAware Approximate
Sat 02:50:00 53.8557 -42.0527 82° East  Level FlightAware Approximate
Sat 02:51:00 53.8751 -41.8043 82° East  Level FlightAware Approximate
Sat 02:52:00 53.8939 -41.5558 83° East  Level FlightAware Approximate
Sat 02:53:00 53.9123 -41.3069 83° East  Level FlightAware Approximate
Sat 02:54:00 53.9301 -41.0579 83° East  Level FlightAware Approximate
Sat 02:55:00 53.9474 -40.8087 83° East  Level FlightAware Approximate
Sat 02:56:00 53.9642 -40.5593 83° East  Level FlightAware Approximate
Sat 02:57:00 53.9805 -40.3097 84° East  Level FlightAware Approximate
Sat 02:58:00 53.9963 -40.0594 84° East  Level FlightAware Approximate
Sat 02:59:00 54.0078 -39.8084 86° East  Level FlightAware Approximate
Sat 03:00:00 54.0176 -39.5571 86° East  Level FlightAware Approximate
Sat 03:01:00 54.0269 -39.3057 86° East  Level FlightAware Approximate
Sat 03:02:00 54.0356 -39.0542 87° East  Level FlightAware Approximate
Sat 03:03:00 54.0438 -38.8026 87° East  Level FlightAware Approximate
Sat 03:04:00 54.0515 -38.5508 87° East  Level FlightAware Approximate
Sat 03:05:00 54.0587 -38.2990 87° East  Level FlightAware Approximate
Sat 03:06:00 54.0653 -38.0471 87° East  Level FlightAware Approximate
Sat 03:07:00 54.0714 -37.7952 88° East  Level FlightAware Approximate
Sat 03:08:00 54.0770 -37.5431 88° East  Level FlightAware Approximate
Sat 03:09:00 54.0821 -37.2910 88° East  Level FlightAware Approximate
Sat 03:10:00 54.0866 -37.0389 88° East  Level FlightAware Approximate
Sat 03:11:00 54.0906 -36.7867 88° East  Level FlightAware Approximate
Sat 03:12:00 54.0941 -36.5344 89° East  Level FlightAware Approximate
Sat 03:13:00 54.0970 -36.2821 89° East  Level FlightAware Approximate
Sat 03:14:00 54.0994 -36.0298 89° East  Level FlightAware Approximate
Sat 03:15:00 54.1013 -35.7774 89° East  Level FlightAware Approximate
Sat 03:16:00 54.1027 -35.5250 89° East  Level FlightAware Approximate
Sat 03:17:00 54.1035 -35.2727 90° East  Level FlightAware Approximate
Sat 03:18:00 54.1038 -35.0202 90° East  Level FlightAware Approximate
Sat 03:19:00 54.1036 -34.7678 90° East  Level FlightAware Approximate
Sat 03:20:00 54.1029 -34.5155 90° East  Level FlightAware Approximate
Sat 03:21:00 54.1016 -34.2631 90° East  Level FlightAware Approximate
Sat 03:22:00 54.0998 -34.0107 91° East  Level FlightAware Approximate
Sat 03:23:00 54.0974 -33.7584 91° East  Level FlightAware Approximate
Sat 03:24:00 54.0946 -33.5061 91° East  Level FlightAware Approximate
Sat 03:25:00 54.0912 -33.2538 91° East  Level FlightAware Approximate
Sat 03:26:00 54.0873 -33.0016 91° East  Level FlightAware Approximate
Sat 03:27:00 54.0828 -32.7494 92° East  Level FlightAware Approximate
Sat 03:28:00 54.0779 -32.4973 92° East  Level FlightAware Approximate
Sat 03:29:00 54.0723 -32.2453 92° East  Level FlightAware Approximate
Sat 03:30:00 54.0663 -31.9933 92° East  Level FlightAware Approximate
Sat 03:31:00 54.0598 -31.7414 92° East  Level FlightAware Approximate
Sat 03:32:00 54.0527 -31.4896 93° East  Level FlightAware Approximate
Sat 03:33:00 54.0451 -31.2378 93° East  Level FlightAware Approximate
Sat 03:34:00 54.0370 -30.9862 93° East  Level FlightAware Approximate
Sat 03:35:00 54.0283 -30.7346 93° East  Level FlightAware Approximate
Sat 03:36:00 54.0191 -30.4832 93° East  Level FlightAware Approximate
Sat 03:37:00 54.0094 -30.2319 94° East  Level FlightAware Approximate
Sat 03:38:00 53.9989 -29.9807 95° East  Level FlightAware Approximate
Sat 03:39:00 53.9844 -29.7302 96° East  Level FlightAware Approximate
Sat 03:40:00 53.9694 -29.4799 96° East  Level FlightAware Approximate
Sat 03:41:00 53.9539 -29.2298 96° East  Level FlightAware Approximate
Sat 03:42:00 53.9379 -28.9798 96° East  Level FlightAware Approximate
Sat 03:43:00 53.9213 -28.7300 96° East  Level FlightAware Approximate
Sat 03:44:00 53.9043 -28.4805 97° East  Level FlightAware Approximate
Sat 03:45:00 53.8867 -28.2311 97° East  Level FlightAware Approximate
Sat 03:46:00 53.8686 -27.9820 97° East  Level FlightAware Approximate
Sat 03:47:00 53.8500 -27.7330 97° East  Level FlightAware Approximate
Sat 03:48:00 53.8308 -27.4843 97° East  Level FlightAware Approximate
Sat 03:49:00 53.8112 -27.2358 98° East  Level FlightAware Approximate
Sat 03:50:00 53.7910 -26.9876 98° East  Level FlightAware Approximate
Sat 03:51:00 53.7704 -26.7396 98° East  Level FlightAware Approximate
Sat 03:52:00 53.7492 -26.4919 98° East  Level FlightAware Approximate
Sat 03:53:00 53.7275 -26.2444 98° East  Level FlightAware Approximate
Sat 03:54:00 53.7053 -25.9971 99° East  Level FlightAware Approximate
Sat 03:55:00 53.6826 -25.7502 99° East  Level FlightAware Approximate
Sat 03:56:00 53.6593 -25.5035 99° East  Level FlightAware Approximate
Sat 03:57:00 53.6356 -25.2570 99° East  Level FlightAware Approximate
Sat 03:58:00 53.6114 -25.0109 99° East  Level FlightAware Approximate
Sat 03:59:00 53.5866 -24.7650 100° East  Level FlightAware Approximate
Sat 04:00:00 53.5614 -24.5194 100° East  Level FlightAware Approximate
Sat 04:01:00 53.5357 -24.2742 100° East  Level FlightAware Approximate
Sat 04:02:00 53.5094 -24.0292 100° East  Level FlightAware Approximate
Sat 04:03:00 53.4827 -23.7845 100° East  Level FlightAware Approximate
Sat 04:04:00 53.4554 -23.5401 101° East  Level FlightAware Approximate
Sat 04:05:00 53.4277 -23.2961 101° East  Level FlightAware Approximate
Sat 04:06:00 53.3995 -23.0524 101° East  Level FlightAware Approximate
Sat 04:07:00 53.3707 -22.8090 101° East  Level FlightAware Approximate
Sat 04:08:00 53.3415 -22.5659 101° East  Level FlightAware Approximate
Sat 04:09:00 53.3118 -22.3232 101° East  Level FlightAware Approximate
Sat 04:10:00 53.2816 -22.0808 102° East  Level FlightAware Approximate
Sat 04:11:00 53.2509 -21.8388 102° East  Level FlightAware Approximate
Sat 04:12:00 53.2197 -21.5971 102° East  Level FlightAware Approximate
Sat 04:13:00 53.1880 -21.3557 102° East  Level FlightAware Approximate
Sat 04:14:00 53.1558 -21.1147 102° East  Level FlightAware Approximate
Sat 04:15:00 53.1231 -20.8741 103° East  Level FlightAware Approximate
Sat 04:16:00 53.0900 -20.6339 103° East  Level FlightAware Approximate
Sat 04:17:00 53.0564 -20.3940 103° East  Level FlightAware Approximate
Sat 04:18:00 53.0223 -20.1545 103° East  Level FlightAware Approximate
Sat 04:19:00 52.9818 -19.9184 110° East  Level FlightAware Approximate
Sat 04:20:00 52.9302 -19.6882 110° East  Level FlightAware Approximate
Sat 04:21:00 52.8781 -19.4585 111° Southeast  Level FlightAware Approximate
Sat 04:22:00 52.8255 -19.2295 111° Southeast  Level FlightAware Approximate
Sat 04:23:00 52.7725 -19.0009 111° Southeast  Level FlightAware Approximate
Sat 04:24:00 52.7191 -18.7729 111° Southeast  Level FlightAware Approximate
Sat 04:25:00 52.6652 -18.5455 111° Southeast  Level FlightAware Approximate
Sat 04:26:00 52.6109 -18.3187 111° Southeast  Level FlightAware Approximate
Sat 04:27:00 52.5562 -18.0924 112° Southeast  Level FlightAware Approximate
Sat 04:28:00 52.5010 -17.8667 112° Southeast  Level FlightAware Approximate
Sat 04:29:00 52.4454 -17.6415 112° Southeast  Level FlightAware Approximate
Sat 04:30:00 52.3894 -17.4169 112° Southeast  Level FlightAware Approximate
Sat 04:31:00 52.3330 -17.1929 112° Southeast  Level FlightAware Approximate
Sat 04:32:00 52.2761 -16.9695 113° Southeast  Level FlightAware Approximate
Sat 04:33:00 52.2188 -16.7466 113° Southeast  Level FlightAware Approximate
Sat 04:34:00 52.1612 -16.5243 113° Southeast  Level FlightAware Approximate
Sat 04:35:00 52.1030 -16.3026 113° Southeast  Level FlightAware Approximate
Sat 04:36:00 52.0445 -16.0815 113° Southeast  Level FlightAware Approximate
Sat 04:37:00 51.9855 -15.8609 113° Southeast  Level FlightAware Approximate
Sat 04:38:00 51.9262 -15.6409 114° Southeast  Level FlightAware Approximate
Sat 04:39:00 51.8664 -15.4215 114° Southeast  Level FlightAware Approximate
Sat 04:40:00 51.8063 -15.2028 114° Southeast  Level FlightAware Approximate
Sat 04:41:00 51.7456 -14.9846 115° Southeast  Level FlightAware Approximate
Sat 04:42:00 51.6831 -14.7681 115° Southeast  Level FlightAware Approximate
Sat 04:43:00 51.6202 -14.5522 115° Southeast  Level FlightAware Approximate
Sat 04:44:00 51.5569 -14.3369 115° Southeast  Level FlightAware Approximate
Sat 04:45:00 51.4932 -14.1222 115° Southeast  Level FlightAware Approximate
Sat 04:46:00 51.4301 -13.9074 115° Southeast  Level FlightAware Approximate
Sat 04:47:00 51.3672 -13.6927 115° Southeast  Level FlightAware Approximate
Sat 04:48:00 51.3039 -13.4785 115° Southeast  Level FlightAware Approximate
Sat 04:49:00 51.2403 -13.2650 115° Southeast  Level FlightAware Approximate
Sat 04:50:00 51.1763 -13.0520 116° Southeast  Level FlightAware Approximate
Sat 04:51:00 51.1118 -12.8397 116° Southeast  Level FlightAware Approximate
Sat 04:52:00 51.0470 -12.6279 116° Southeast  Level FlightAware Approximate
Sat 04:53:00 50.9823 -12.4164 116° Southeast  Level FlightAware Approximate
Sat 04:54:00 50.9173 -12.2053 116° Southeast  Level FlightAware Approximate
Sat 04:55:00 50.8519 -11.9949 116° Southeast  Level FlightAware Approximate
Sat 04:56:00 50.7861 -11.7851 116° Southeast  Level FlightAware Approximate
Sat 04:57:00 50.7199 -11.5759 116° Southeast  Level FlightAware Approximate
Sat 04:58:00 50.6534 -11.3672 117° Southeast  Level FlightAware Approximate
Sat 04:59:00 50.5865 -11.1592 117° Southeast  Level FlightAware Approximate
Sat 04:59:04 50.6270 -10.9220 117° Southeast 496 571 35,000  Level FlightAware ADS-B
Sat 04:59:48 50.5770 -10.7840 120° Southeast 499 574 35,000  Level FlightAware ADS-B
Sat 05:00:31 50.5340 -10.6640 119° Southeast 499 574 35,000  Level FlightAware ADS-B
Sat 05:01:07 50.5000 -10.5670 119° Southeast 499 574 35,000  Level FlightAware ADS-B
Sat 05:01:54 50.4310 -10.3870 121° Southeast 504 580 35,000  Level FlightAware ADS-B
Sat 05:02:51 50.3690 -10.2230 121° Southeast 505 581 35,000  Level FlightAware ADS-B
Sat 05:03:30 50.3170 -10.0850 121° Southeast 506 582 35,000  Level FlightAware ADS-B
Sat 05:04:14 50.2640 -9.9430 120° Southeast 506 582 35,000  Level FlightAware ADS-B
Sat 05:04:47 50.2250 -9.8420 121° Southeast 506 582 35,000  Level FlightAware ADS-B
Sat 05:06:34 50.1240 -9.5790 121° Southeast 506 582 35,000  Level FlightAware ADS-B
Sat 05:07:14 50.0490 -9.3820 121° Southeast 506 582 35,000  Level FlightAware ADS-B
Sat 05:07:58 49.9950 -9.2420 121° Southeast 506 582 35,000  Level FlightAware ADS-B
Sat 05:08:38 49.9470 -9.1210 122° Southeast 508 585 35,000  Level FlightAware ADS-B
Sat 05:09:21 49.8929 -8.9818 122° Southeast 478 550 35,000  Level FlightAware UK
Sat 05:09:22 49.8930 -8.9840 122° Southeast 511 588 35,000  Level FlightAware ADS-B
Sat 05:09:39 49.8708 -8.9255 122° Southeast 480 552 35,000  Level FlightAware UK
Sat 05:09:57 49.8485 -8.8692 121° Southeast 480 552 35,000  Level FlightAware UK
Sat 05:10:02 49.8450 -8.8610 121° Southeast 512 589 35,000  Level FlightAware ADS-B
Sat 05:10:21 49.8190 -8.7940 121° Southeast 478 550 35,000  Level FlightAware UK
Sat 05:10:39 49.7968 -8.7376 121° Southeast 480 552 35,000  Level FlightAware UK
Sat 05:10:44 49.7910 -8.7230 121° Southeast 514 592 35,000  Level FlightAware ADS-B
Sat 05:11:03 49.7670 -8.6624 121° Southeast 480 552 35,000  Level FlightAware UK
Sat 05:11:21 49.7446 -8.6060 122° Southeast 480 552 35,000  Level FlightAware UK
Sat 05:11:26 49.7470 -8.6130 122° Southeast 516 594 35,000  Level FlightAware ADS-B
Sat 05:11:45 49.7145 -8.5306 122° Southeast 480 552 35,000  Level FlightAware UK
Sat 05:12:03 49.6918 -8.4740 122° Southeast 482 555 35,000  Level FlightAware UK
Sat 05:12:10 49.6840 -8.4560 122° Southeast 519 597 35,000  Level FlightAware ADS-B
Sat 05:12:27 49.6615 -8.3986 122° Southeast 482 555 35,000  Level FlightAware UK
Sat 05:12:45 49.6388 -8.3418 122° Southeast 482 555 35,000  Level FlightAware UK
Sat 05:12:50 49.6330 -8.3300 122° Southeast 522 601 35,000  Level FlightAware ADS-B
Sat 05:13:09 49.6083 -8.2661 122° Southeast 482 555 35,000  Level FlightAware UK
Sat 05:13:27 49.5853 -8.2092 122° Southeast 484 557 35,000  Level FlightAware UK
Sat 05:13:34 49.5780 -8.1910 122° Southeast 525 604 35,000  Level FlightAware ADS-B
Sat 05:13:51 49.5544 -8.1332 122° Southeast 486 559 35,000  Level FlightAware UK
Sat 05:14:09 49.5312 -8.0761 122° Southeast 486 559 35,000  Level FlightAware UK
Sat 05:14:14 49.5250 -8.0640 122° Southeast 526 605 35,000  Level FlightAware ADS-B
Sat 05:14:33 49.5006 -7.9984 122° Southeast 486 559 35,000  Level FlightAware UK
Sat 05:14:51 49.4814 -7.9361 115° Southeast 486 559 35,000  Level FlightAware UK
Sat 05:14:58 49.4770 -7.9180 115° Southeast 527 606 35,000  Level FlightAware ADS-B
Sat 05:15:15 49.4578 -7.8537 115° Southeast 488 562 35,000  Level FlightAware UK
Sat 05:15:33 49.4408 -7.7920 113° Southeast 488 562 35,000  Level FlightAware UK
Sat 05:15:38 49.4370 -7.7810 113° Southeast 528 608 35,000  Level FlightAware ADS-B
Sat 05:15:57 49.4177 -7.7094 113° Southeast 488 562 35,000  Level FlightAware UK
Sat 05:16:15 49.4003 -7.6475 113° Southeast 486 559 35,000  Level FlightAware UK
Sat 05:16:22 49.3940 -7.6260 113° Southeast 528 608 35,000  Level FlightAware ADS-B
Sat 05:16:39 49.3770 -7.5652 113° Southeast 486 559 35,000  Level FlightAware UK
Sat 05:16:57 49.3594 -7.5035 114° Southeast 484 557 35,000  Level FlightAware UK
Sat 05:17:02 49.3550 -7.4890 114° Southeast 528 608 35,000  Level FlightAware ADS-B
Sat 05:17:21 49.3362 -7.4210 114° Southeast 486 559 35,000  Level FlightAware UK
Sat 05:17:39 49.3185 -7.3593 114° Southeast 486 559 35,000  Level FlightAware UK
Sat 05:17:43 49.3140 -7.3530 114° Southeast 529 609 35,000  Level FlightAware ADS-B
Sat 05:18:03 49.2901 -7.2804 114° Southeast 486 559 35,000  Level FlightAware UK
Sat 05:18:21 49.2689 -7.2214 119° Southeast 486 559 35,000  Level FlightAware UK
Sat 05:18:26 49.2650 -7.2110 119° Southeast 529 609 35,000  Level FlightAware ADS-B
Sat 05:18:45 49.2399 -7.1433 119° Southeast 484 557 35,000  Level FlightAware UK
Sat 05:19:03 49.2178 -7.0848 120° Southeast 484 557 35,000  Level FlightAware UK
Sat 05:19:08 49.2130 -7.0750 120° Southeast 530 610 35,000  Level FlightAware ADS-B
Sat 05:19:27 49.1882 -7.0072 120° Southeast 484 557 35,000  Level FlightAware UK
Sat 05:19:45 49.1660 -6.9490 120° Southeast 484 557 35,000  Level FlightAware UK
Sat 05:19:52 49.1590 -6.9330 120° Southeast 530 610 35,000  Level FlightAware ADS-B
Sat 05:20:10 49.1358 -6.8710 120° Southeast 484 557 35,000  Level FlightAware UK
Sat 05:20:16 49.1290 -6.8560 121° Southeast 529 609 35,000  Level FlightAware ADS-B
Sat 05:20:28 49.1133 -6.8132 121° Southeast 484 557 35,000  Level FlightAware UK
Sat 05:20:46 49.0906 -6.7556 121° Southeast 484 557 35,000  Level FlightAware UK
Sat 05:20:52 49.0830 -6.7363 121° Southeast 484 557 35,000  Level FlightAware UK
Sat 05:21:10 49.0604 -6.6787 121° Southeast 484 557 35,000  Level FlightAware UK
Sat 05:21:28 49.0377 -6.6211 121° Southeast 484 557 35,000  Level FlightAware UK
Sat 05:21:28 49.0380 -6.6240 121° Southeast 531 611 35,000  Level FlightAware ADS-B
Sat 05:21:46 49.0150 -6.5634 121° Southeast 484 557 35,000  Level FlightAware UK
Sat 05:22:04 48.9924 -6.5056 121° Southeast 484 557 35,000  Level FlightAware UK
Sat 05:22:12 48.9820 -6.4800 121° Southeast 531 611 35,000  Level FlightAware ADS-B
Sat 05:22:28 48.9620 -6.4287 121° Southeast 486 559 35,000  Level FlightAware UK
Sat 05:22:46 48.9392 -6.3712 121° Southeast 486 559 35,000  Level FlightAware UK
Sat 05:22:52 48.9320 -6.3550 121° Southeast 531 611 35,000  Level FlightAware ADS-B
Sat 05:23:10 48.9087 -6.2945 121° Southeast 488 562 35,000  Level FlightAware UK
Sat 05:23:28 48.8858 -6.2370 121° Southeast 488 562 35,000  Level FlightAware UK
Sat 05:23:36 48.8760 -6.2150 121° Southeast 531 611 35,000  Level FlightAware ADS-B
Sat 05:23:52 48.8552 -6.1605 121° Southeast 488 562 35,000  Level FlightAware UK
Sat 05:24:10 48.8323 -6.1031 121° Southeast 488 562 35,000  Level FlightAware UK
Sat 05:24:17 48.8230 -6.0810 121° Southeast 529 609 35,000  Level FlightAware ADS-B
Sat 05:24:34 48.8020 -6.0268 121° Southeast 486 559 35,000  Level FlightAware UK
Sat 05:24:52 48.7791 -5.9697 121° Southeast 484 557 35,000  Level FlightAware UK
Sat 05:24:58 48.7720 -5.9550 121° Southeast 529 609 35,000  Level FlightAware ADS-B
Sat 05:25:16 48.7485 -5.8938 121° Southeast 484 557 35,000  Level FlightAware UK
Sat 05:25:34 48.7255 -5.8370 121° Southeast 484 557 35,000  Level FlightAware UK
Sat 05:25:52 48.7023 -5.7795 121° Southeast 484 557 35,000  Level FlightAware UK
Sat 05:25:56 48.6980 -5.7710 121° Southeast 530 610 35,000  Level FlightAware ADS-B
Sat 05:26:16 48.6716 -5.7037 121° Southeast 486 559 35,000  Level FlightAware UK
Sat 05:26:34 48.6486 -5.6468 121° Southeast 486 559 35,000  Level FlightAware UK
Sat 05:26:36 48.6460 -5.6410 121° Southeast 530 610 35,000  Level FlightAware ADS-B
Sat 05:26:52 48.6256 -5.5900 121° Southeast 484 557 35,000  Level FlightAware UK
Sat 05:27:10 48.6024 -5.5333 122° Southeast 484 557 35,000  Level FlightAware UK
Sat 05:27:18 48.5920 -5.5120 122° Southeast 531 611 35,000  Level FlightAware ADS-B
Sat 05:27:34 48.5714 -5.4578 122° Southeast 484 557 35,000  Level FlightAware UK
Sat 05:27:52 48.5482 -5.4012 122° Southeast 484 557 35,000  Level FlightAware UK
Sat 05:28:02 48.5360 -5.3740 122° Southeast 531 611 35,000  Level FlightAware ADS-B
Sat 05:28:34 48.4941 -5.2694 122° Southeast 484 557 35,000  Level FlightAware UK
Sat 05:28:42 48.4840 -5.2480 122° Southeast 531 611 35,000  Level FlightAware ADS-B
Sat 05:29:26 48.4260 -5.1070 122° Southeast 532 612 35,000  Level FlightAware ADS-B
Sat 05:30:04 48.3772 -4.9871 122° Southeast 484 557 35,000  Level FlightAware UK
Sat 05:30:04 48.3770 -4.9900 122° Southeast 533 613 35,000  Level FlightAware ADS-B
Sat 05:30:28 48.3458 -4.9119 122° Southeast 484 557 35,000  Level FlightAware UK
Sat 05:30:46 48.3219 -4.8548 122° Southeast 484 557 35,000  Level FlightAware UK
Sat 05:30:48 48.3190 -4.8490 122° Southeast 533 613 35,000  Level FlightAware ADS-B
Sat 05:31:04 48.2985 -4.7991 122° Southeast 484 557 35,000  Level FlightAware UK
Sat 05:31:22 48.2749 -4.7425 122° Southeast 482 555 35,000  Level FlightAware UK
Sat 05:31:32 48.2600 -4.7110 122° Southeast 535 616 35,000  Level FlightAware ADS-B
Sat 05:31:52 48.2350 -4.6478 122° Southeast 482 555 35,000  Level FlightAware UK
Sat 05:32:10 48.2110 -4.5950 122° Southeast 536 617 35,000  Level FlightAware ADS-B
Sat 05:32:56 48.1500 -4.4510 122° Southeast 537 618 35,000  Level FlightAware ADS-B
Sat 05:33:36 48.0970 -4.3260 122° Southeast 538 619 35,000  Level FlightAware ADS-B
Sat 05:34:20 48.0370 -4.1850 122° Southeast 539 620 35,000  Level FlightAware ADS-B
Sat 05:35:00 47.9840 -4.0620 123° Southeast 541 623 35,000  Level FlightAware ADS-B
Sat 05:35:42 47.9270 -3.9270 122° Southeast 542 624 35,000  Level FlightAware ADS-B
Sat 05:36:21 47.8830 -3.8260 123° Southeast 543 625 35,000  Level FlightAware ADS-B
Sat 05:37:15 47.8070 -3.6530 123° Southeast 541 623 35,000  Level FlightAware ADS-B
Sat 05:37:59 47.7480 -3.5180 123° Southeast 545 627 35,000  Level FlightAware ADS-B
Sat 05:38:43 47.6870 -3.3770 123° Southeast 546 628 35,000  Level FlightAware ADS-B
Sat 05:39:23 47.6370 -3.2640 123° Southeast 546 628 35,000  Level FlightAware ADS-B
Sat 05:40:08 47.5600 -3.0930 124° Southeast 546 628 35,000  Level FlightAware ADS-B
Sat 05:40:50 47.5030 -2.9650 123° Southeast 546 628 35,000 349 Level FlightAware ADS-B
Sat 05:41:34 47.4410 -2.8280 124° Southeast 551 634 35,500 929 Climbing FlightAware ADS-B
Sat 05:42:14 47.3850 -2.7030 123° Southeast 548 631 36,300 1,071 Climbing FlightAware ADS-B
Sat 05:42:58 47.3230 -2.5640 123° Southeast 544 626 37,000 488 Climbing FlightAware ADS-B
Sat 05:43:40 47.2640 -2.4350 124° Southeast 543 625 37,000  Level FlightAware ADS-B
Sat 05:44:18 47.2110 -2.3220 125° Southeast 540 621 37,000  Level FlightAware ADS-B
Sat 05:45:04 47.1480 -2.1830 124° Southeast 536 617 37,000  Level FlightAware ADS-B
Sat 05:45:58 47.1140 -2.1100 124° Southeast 536 617 37,000  Level FlightAware ADS-B
Sat 05:46:39 47.0180 -1.9010 124° Southeast 534 615 37,000  Level FlightAware ADS-B
Sat 05:47:19 46.9600 -1.7760 124° Southeast 534 615 37,000  Level FlightAware ADS-B
Sat 05:48:04 46.8970 -1.6450 125° Southeast 535 616 37,000  Level FlightAware ADS-B
Sat 05:48:44 46.8410 -1.5260 124° Southeast 536 617 37,000  Level FlightAware ADS-B
Sat 05:49:29 46.7810 -1.3980 124° Southeast 539 620 37,000  Level FlightAware ADS-B
Sat 05:50:12 46.7170 -1.2630 125° Southeast 539 620 37,000  Level FlightAware ADS-B
Sat 05:50:54 46.6580 -1.1380 124° Southeast 541 623 37,000  Level FlightAware ADS-B
Sat 05:51:34 46.6000 -1.0190 125° Southeast 542 624 37,000  Level FlightAware ADS-B
Sat 05:52:16 46.5400 -0.8930 125° Southeast 543 625 37,000  Level FlightAware ADS-B
Sat 05:53:00 46.4780 -0.7650 125° Southeast 544 626 37,000  Level FlightAware ADS-B
Sat 05:55:00 46.3994 -0.3509 105° East  Level Estimated
Sat 05:55:15 46.3560 -0.3120 105° East 537 618 37,000  Level FlightAware ADS-B
Sat 05:56:40 46.2810 -0.0290 111° Southeast 539 620 37,000  Level FlightAware ADS-B
Sat 05:57:20 46.2440 0.1080 111° Southeast 538 619 37,000  Level FlightAware ADS-B
Sat 05:58:00 46.2110 0.2400 110° East 538 619 37,000  Level FlightAware ADS-B
Sat 05:58:41 46.1790 0.3680 110° East 536 617 37,000  Level FlightAware ADS-B
Sat 05:59:25 46.1390 0.5250 110° East 532 612 37,000  Level FlightAware ADS-B
Sat 06:00:01 46.1130 0.6320 109° East 532 612 37,000  Level FlightAware ADS-B
Sat 06:00:51 46.0790 0.7750 109° East 532 612 37,000  Level FlightAware ADS-B
Sat 06:01:27 46.0540 0.8770 109° East 532 612 37,000  Level FlightAware ADS-B
Sat 06:02:16 46.0210 1.0170 109° East 532 612 37,000  Level FlightAware ADS-B
Sat 06:02:52 45.9960 1.1190 109° East 532 612 37,000  Level FlightAware ADS-B
Sat 06:03:31 45.9250 1.3490 114° Southeast 536 617 37,000  Level FlightAware ADS-B
Sat 06:04:29 45.8800 1.5400 109° East 534 615 37,000  Level FlightAware ADS-B
Sat 06:05:13 45.8580 1.6920 102° East 533 613 37,000  Level FlightAware ADS-B
Sat 06:05:58 45.8350 1.8520 102° East 535 616 37,000  Level FlightAware ADS-B
Sat 06:06:43 45.8130 2.0080 101° East 534 615 37,000  Level FlightAware ADS-B
Sat 06:07:23 45.7920 2.1460 102° East 532 612 37,000  Level FlightAware ADS-B
Sat 06:08:07 45.7710 2.2970 101° East 529 609 37,000  Level FlightAware ADS-B
Sat 06:08:45 45.7530 2.4240 101° East 529 609 37,000  Level FlightAware ADS-B
Sat 06:09:28 45.7320 2.5710 102° East 530 610 37,000  Level FlightAware ADS-B
Sat 06:10:11 45.7090 2.7260 102° East 530 610 37,000  Level FlightAware ADS-B
Sat 06:10:47 45.6920 2.8420 102° East 529 609 37,000  Level FlightAware ADS-B
Sat 06:11:35 45.6670 3.0100 102° East 527 606 37,000  Level FlightAware ADS-B
Sat 06:11:51 45.6500 3.0560 118° Southeast 528 608 37,000  Level FlightAware ADS-B
Sat 06:12:31 45.5880 3.1720 127° Southeast 527 606 37,000  Level FlightAware ADS-B
Sat 06:13:13 45.5300 3.2880 125° Southeast 528 608 37,000  Level FlightAware ADS-B
Sat 06:13:53 45.4730 3.4070 124° Southeast 530 610 37,000  Level FlightAware ADS-B
Sat 06:14:39 45.4130 3.5380 123° Southeast 529 609 37,000  Level FlightAware ADS-B
Sat 06:15:21 45.3580 3.6610 122° Southeast 529 609 37,000  Level FlightAware ADS-B
Sat 06:15:59 45.3070 3.7730 123° Southeast 529 609 37,000  Level FlightAware ADS-B
Sat 06:16:43 45.2480 3.9040 123° Southeast 530 610 37,000  Level FlightAware ADS-B
Sat 06:17:23 45.1920 4.0180 125° Southeast 530 610 37,000  Level FlightAware ADS-B
Sat 06:18:03 45.1360 4.1320 125° Southeast 531 611 37,000  Level FlightAware ADS-B
Sat 06:18:47 45.0740 4.2540 126° Southeast 534 615 37,000  Level FlightAware ADS-B
Sat 06:19:31 45.0110 4.3830 125° Southeast 535 616 37,000  Level FlightAware ADS-B
Sat 06:20:13 44.9530 4.4970 126° Southeast 536 617 37,000  Level FlightAware ADS-B
Sat 06:20:55 44.8910 4.6220 125° Southeast 536 617 37,000  Level FlightAware ADS-B
Sat 06:21:35 44.8340 4.7370 125° Southeast 536 617 37,000  Level FlightAware ADS-B
Sat 06:22:20 44.7710 4.8620 125° Southeast 537 618 37,000  Level FlightAware ADS-B
Sat 06:22:59 44.7130 4.9660 128° Southeast 534 615 37,000  Level FlightAware ADS-B
Sat 06:23:43 44.6360 5.0770 134° Southeast 533 613 37,000  Level FlightAware ADS-B
Sat 06:24:23 44.5650 5.1760 135° Southeast 533 613 37,000  Level FlightAware ADS-B
Sat 06:25:07 44.4890 5.2850 134° Southeast 532 612 37,000  Level FlightAware ADS-B
Sat 06:26:17 44.4640 5.3220 133° Southeast 532 612 37,000  Level FlightAware ADS-B
Sat 06:27:01 44.2980 5.5690 133° Southeast 533 613 37,000  Level FlightAware ADS-B
Sat 06:27:41 44.2280 5.6690 134° Southeast 536 617 37,000  Level FlightAware ADS-B
Sat 06:28:25 44.1560 5.7790 132° Southeast 538 619 37,000  Level FlightAware ADS-B
Sat 06:29:05 44.0960 5.8980 125° Southeast 547 629 37,000  Level FlightAware ADS-B
Sat 06:29:43 44.0510 6.0090 119° Southeast 544 626 37,000  Level FlightAware ADS-B
Sat 06:30:27 43.9960 6.1460 119° Southeast 545 627 37,000  Level FlightAware ADS-B
Sat 06:31:13 43.9390 6.2870 119° Southeast 546 628 37,000  Level FlightAware ADS-B
Sat 06:31:53 43.8900 6.4080 119° Southeast 544 626 37,000  Level FlightAware ADS-B
Sat 06:32:33 43.8390 6.5320 120° Southeast 544 626 37,000  Level FlightAware ADS-B
Sat 06:33:15 43.7850 6.6580 121° Southeast 547 629 37,000  Level FlightAware ADS-B
Sat 06:33:55 43.7340 6.7790 120° Southeast 545 627 37,000  Level FlightAware ADS-B
Sat 06:34:37 43.6840 6.8990 120° Southeast 548 631 37,000  Level FlightAware ADS-B
Sat 06:35:37 43.6050 7.0890 120° Southeast 553 636 37,000  Level FlightAware ADS-B
Sat 06:36:19 43.5520 7.2140 120° Southeast 553 636 37,000  Level FlightAware ADS-B
Sat 06:36:59 43.5010 7.3360 120° Southeast 554 638 37,000  Level FlightAware ADS-B
Sat 06:37:59 43.4250 7.5160 120° Southeast 555 639 37,000  Level FlightAware ADS-B
Sat 06:38:39 43.3740 7.6340 121° Southeast 555 639 37,000  Level FlightAware ADS-B
Sat 06:39:19 43.3210 7.7550 121° Southeast 556 640 37,000  Level FlightAware ADS-B
Sat 06:40:04 43.2630 7.8890 121° Southeast 555 639 37,000  Level FlightAware ADS-B
Sat 06:41:13 43.1690 8.1050 121° Southeast 553 636 37,000  Level FlightAware ADS-B
Sat 06:41:53 43.1150 8.2290 121° Southeast 551 634 37,000  Level FlightAware ADS-B
Sat 06:42:37 43.0590 8.3610 120° Southeast 548 631 37,000  Level FlightAware ADS-B
Sat 06:43:18 43.0080 8.4840 120° Southeast 547 629 37,000  Level FlightAware ADS-B
Sat 06:43:59 42.9550 8.6050 121° Southeast 545 627 37,000  Level FlightAware ADS-B
Sat 06:44:41 42.9020 8.7260 121° Southeast 541 623 37,000  Level FlightAware ADS-B
Sat 06:46:06 42.8430 8.8630 120° Southeast 538 619 37,000  Level FlightAware ADS-B
Sat 06:46:49 42.7410 9.0960 121° Southeast 525 604 37,000  Level FlightAware ADS-B
Sat 06:47:33 42.6860 9.2200 121° Southeast 520 598 37,000  Level FlightAware ADS-B
Sat 06:48:11 42.6380 9.3280 121° Southeast 516 594 37,000  Level FlightAware ADS-B
Sat 06:48:57 42.5860 9.4560 119° Southeast 518 596 37,000  Level FlightAware ADS-B
Sat 06:49:37 42.5500 9.5770 112° Southeast 525 604 37,000  Level FlightAware ADS-B
Sat 06:51:03 42.4800 9.8360 110° East 523 602 37,000  Level FlightAware ADS-B
Sat 06:51:43 42.4460 9.9650 110° East 525 604 37,000  Level FlightAware ADS-B
Sat 06:52:25 42.4030 10.0900 115° Southeast 524 603 37,000  Level FlightAware ADS-B
Sat 06:53:09 42.3450 10.2110 123° Southeast 521 600 37,000  Level FlightAware ADS-B
Sat 06:53:47 42.2930 10.3130 125° Southeast 522 601 37,000  Level FlightAware ADS-B
Sat 06:54:28 42.2380 10.4240 124° Southeast 521 600 37,000  Level FlightAware ADS-B
Sat 06:55:28 42.1640 10.5700 124° Southeast 528 608 37,000  Level FlightAware ADS-B
Sat 06:56:09 42.0980 10.6980 125° Southeast 530 610 37,000  Level FlightAware ADS-B
Sat 06:56:50 42.0430 10.8070 124° Southeast 534 615 37,000  Level FlightAware ADS-B
Sat 06:57:34 41.9810 10.9280 125° Southeast 538 619 37,000  Level FlightAware ADS-B
Sat 06:58:15 41.9220 11.0410 125° Southeast 541 623 37,000  Level FlightAware ADS-B
Sat 06:58:55 41.8650 11.1520 125° Southeast 546 628 37,000  Level FlightAware ADS-B
Sat 06:59:41 41.7990 11.2810 124° Southeast 550 633 37,000  Level FlightAware ADS-B
Sat 07:00:21 41.7410 11.3920 125° Southeast 542 624 37,000  Level FlightAware ADS-B
Sat 07:01:06 41.6810 11.5100 124° Southeast 544 626 37,000  Level FlightAware ADS-B
Sat 07:01:45 41.6220 11.6230 125° Southeast 542 624 37,000  Level FlightAware ADS-B
Sat 07:02:29 41.5590 11.7440 125° Southeast 538 619 37,000  Level FlightAware ADS-B
Sat 07:03:10 41.5000 11.8550 125° Southeast 537 618 37,000  Level FlightAware ADS-B
Sat 07:03:49 41.4430 11.9640 125° Southeast 536 617 37,000  Level FlightAware ADS-B
Sat 07:04:30 41.3860 12.0720 125° Southeast 536 617 37,000  Level FlightAware ADS-B
Sat 07:05:15 41.3210 12.1940 125° Southeast 536 617 37,000  Level FlightAware ADS-B
Sat 07:05:59 41.2590 12.3130 125° Southeast 538 619 37,000  Level FlightAware ADS-B
Sat 07:06:40 41.1990 12.4250 125° Southeast 539 620 37,000  Level FlightAware ADS-B
Sat 07:07:24 41.1340 12.5440 126° Southeast 537 618 37,000  Level FlightAware ADS-B
Sat 07:08:00 41.0820 12.6410 125° Southeast 535 616 37,000  Level FlightAware ADS-B
Sat 07:08:45 41.0190 12.7690 123° Southeast 544 626 37,000  Level FlightAware ADS-B
Sat 07:09:41 40.9480 12.9320 120° Southeast 541 623 37,000  Level FlightAware ADS-B
Sat 07:10:20 40.9030 13.0320 121° Southeast 542 624 37,000  Level FlightAware ADS-B
Sat 07:11:00 40.8530 13.1490 119° Southeast 540 621 37,000  Level FlightAware ADS-B
Sat 07:11:46 40.7920 13.2840 121° Southeast 535 616 37,000  Level FlightAware ADS-B
Sat 07:12:30 40.7360 13.4110 120° Southeast 533 613 37,000  Level FlightAware ADS-B
Sat 07:13:12 40.6840 13.5250 121° Southeast 535 616 37,000  Level FlightAware ADS-B
Sat 07:13:52 40.6330 13.6370 121° Southeast 536 617 37,000  Level FlightAware ADS-B
Sat 07:14:34 40.5800 13.7580 120° Southeast 537 618 37,000  Level FlightAware ADS-B
Sat 07:16:14 40.4520 14.0390 121° Southeast 539 620 37,000  Level FlightAware ADS-B
Sat 07:16:48 40.4100 14.1320 121° Southeast 540 621 37,000  Level FlightAware ADS-B
Sat 07:17:38 40.3460 14.2690 121° Southeast 541 623 37,000  Level FlightAware ADS-B
Sat 07:18:18 40.2940 14.3850 120° Southeast 537 618 37,000  Level FlightAware ADS-B
Sat 07:19:03 40.2360 14.5080 122° Southeast 539 620 37,000  Level FlightAware ADS-B
Sat 07:19:43 40.1840 14.6210 121° Southeast 540 621 37,000  Level FlightAware ADS-B
Sat 07:20:25 40.1310 14.7360 121° Southeast 539 620 37,000  Level FlightAware ADS-B
Sat 07:21:09 40.0750 14.8640 120° Southeast 547 629 37,000  Level FlightAware ADS-B
Sat 07:21:49 40.0290 14.9890 116° Southeast 547 629 37,000  Level FlightAware ADS-B
Sat 07:22:34 39.9860 15.1050 116° Southeast 547 629 37,000  Level FlightAware ADS-B
Sat 07:23:14 39.9400 15.2410 114° Southeast 547 629 37,000  Level FlightAware ADS-B
Sat 07:24:11 39.8790 15.4140 115° Southeast 545 627 37,000  Level FlightAware ADS-B
Sat 07:24:51 39.8360 15.5330 115° Southeast 545 627 37,000  Level FlightAware ADS-B
Sat 07:25:46 39.7770 15.6960 115° Southeast 542 624 37,000  Level FlightAware ADS-B
Sat 07:26:28 39.7330 15.8190 115° Southeast 541 623 37,000  Level FlightAware ADS-B
Sat 07:27:12 39.6860 15.9480 115° Southeast 542 624 37,000  Level FlightAware ADS-B
Sat 07:27:52 39.6430 16.0660 115° Southeast 542 624 37,000  Level FlightAware ADS-B
Sat 07:28:30 39.6020 16.1740 116° Southeast 540 621 37,000  Level FlightAware ADS-B
Sat 07:29:18 39.5500 16.3180 115° Southeast 540 621 37,000  Level FlightAware ADS-B
Sat 07:30:00 39.5060 16.4380 115° Southeast 543 625 37,000  Level FlightAware ADS-B
Sat 07:30:21 39.4820 16.5020 116° Southeast 545 627 37,000  Level FlightAware ADS-B
Sat 07:31:29 39.4090 16.6980 116° Southeast 542 624 37,000  Level FlightAware ADS-B
Sat 07:32:13 39.3620 16.8240 116° Southeast 543 625 37,000  Level FlightAware ADS-B
Sat 07:33:10 39.2980 16.9970 116° Southeast 545 627 37,000  Level FlightAware ADS-B
Sat 07:34:03 39.2540 17.1120 116° Southeast 553 636 37,000  Level FlightAware ADS-B
Sat 07:34:48 39.2050 17.2420 116° Southeast 551 634 37,000  Level FlightAware ADS-B
Sat 07:35:30 39.1560 17.3690 116° Southeast 556 640 37,000  Level FlightAware ADS-B
Sat 07:36:11 39.1070 17.5000 116° Southeast 556 640 37,000  Level FlightAware ADS-B
Sat 07:36:48 39.0670 17.6040 116° Southeast 555 639 37,000  Level FlightAware ADS-B
Sat 07:37:28 39.0200 17.7250 117° Southeast 555 639 37,000  Level FlightAware ADS-B
Sat 07:38:09 38.9770 17.8370 116° Southeast 553 636 37,000  Level FlightAware ADS-B
Sat 07:38:58 38.9180 17.9880 117° Southeast 555 639 37,000  Level FlightAware ADS-B
Sat 07:39:38 38.8700 18.1120 116° Southeast 557 641 37,000  Level FlightAware ADS-B
Sat 07:41:18 38.7900 18.3160 117° Southeast 555 639 37,000  Level FlightAware ADS-B
Sat 07:41:55 38.7140 18.5110 116° Southeast 559 643 37,000  Level FlightAware ADS-B
Sat 07:42:37 38.6670 18.6260 118° Southeast 558 642 37,000  Level FlightAware ADS-B
Sat 07:43:17 38.6160 18.7550 117° Southeast 557 641 37,000  Level FlightAware ADS-B
Sat 07:44:01 38.5640 18.8860 117° Southeast 555 639 37,000  Level FlightAware ADS-B
Sat 07:44:48 38.5030 19.0570 114° Southeast 560 644 37,000  Level FlightAware ADS-B
Sat 07:45:24 38.4740 19.1660 109° East 561 646 37,000  Level FlightAware ADS-B
Sat 07:46:09 38.4370 19.3080 108° East 560 644 37,000  Level FlightAware ADS-B
Sat 07:46:49 38.4000 19.4330 111° Southeast 556 640 37,000  Level FlightAware ADS-B
Sat 07:47:34 38.3560 19.5660 113° Southeast 555 639 37,000  Level FlightAware ADS-B
Sat 07:48:14 38.3160 19.6900 112° Southeast 552 635 37,000  Level FlightAware ADS-B
Sat 07:48:59 38.2730 19.8250 112° Southeast 551 634 37,000  Level FlightAware ADS-B
Sat 07:49:38 38.2330 19.9420 113° Southeast 549 632 37,000  Level FlightAware ADS-B
Sat 07:50:14 38.1980 20.0460 113° Southeast 549 632 37,000  Level FlightAware ADS-B
Sat 07:51:04 38.1490 20.1950 113° Southeast 551 634 37,000  Level FlightAware ADS-B
Sat 07:51:44 38.1090 20.3170 113° Southeast 548 631 37,000  Level FlightAware ADS-B
Sat 07:52:29 38.0640 20.4510 113° Southeast 548 631 37,000  Level FlightAware ADS-B
Sat 07:53:08 38.0240 20.5670 114° Southeast 547 629 37,000  Level FlightAware ADS-B
Sat 07:53:54 37.9790 20.7000 113° Southeast 546 628 37,000  Level FlightAware ADS-B
Sat 07:54:34 37.9380 20.8180 114° Southeast 545 627 37,000  Level FlightAware ADS-B
Sat 07:55:14 37.8980 20.9380 113° Southeast 543 625 37,000  Level FlightAware ADS-B
Sat 07:55:57 37.8540 21.0630 114° Southeast 543 625 37,000  Level FlightAware ADS-B
Sat 07:56:41 37.8090 21.1940 113° Southeast 543 625 37,000  Level FlightAware ADS-B
Sat 07:57:20 37.7720 21.3020 113° Southeast 545 627 37,000  Level FlightAware ADS-B
Sat 07:58:03 37.7260 21.4310 114° Southeast 547 629 37,000  Level FlightAware ADS-B
Sat 07:58:45 37.6830 21.5530 114° Southeast 548 631 37,000  Level FlightAware ADS-B
Sat 07:59:23 37.6450 21.6640 113° Southeast 548 631 37,000  Level FlightAware ADS-B
Sat 08:00:11 37.5950 21.8050 114° Southeast 548 631 37,000  Level FlightAware ADS-B
Sat 08:00:19 37.5860 21.8310 114° Southeast 548 631 37,000  Level FlightAware ADS-B
Sat 08:01:25 37.5180 22.0200 114° Southeast 545 627 37,000  Level FlightAware ADS-B
Sat 08:02:10 37.4710 22.1520 114° Southeast 543 625 37,000  Level FlightAware ADS-B
Sat 08:02:50 37.4300 22.2670 114° Southeast 540 621 37,000  Level FlightAware ADS-B
Sat 08:03:29 37.3930 22.3770 113° Southeast 541 623 37,000  Level FlightAware ADS-B
Sat 08:04:14 37.3530 22.5130 110° East 543 625 37,000  Level FlightAware ADS-B
Sat 08:04:58 37.3150 22.6440 110° East 544 626 37,000  Level FlightAware ADS-B
Sat 08:06:08 37.2530 22.8480 111° Southeast 543 625 37,000  Level FlightAware ADS-B
Sat 08:06:48 37.2140 22.9660 113° Southeast 541 623 37,000  Level FlightAware ADS-B
Sat 08:07:30 37.1740 23.0840 113° Southeast 540 621 37,000  Level FlightAware ADS-B
Sat 08:08:14 37.1300 23.2110 113° Southeast 539 620 37,000  Level FlightAware ADS-B
Sat 08:08:55 37.0910 23.3290 112° Southeast 539 620 37,000  Level FlightAware ADS-B
Sat 08:09:36 37.0510 23.4470 113° Southeast 537 618 37,000  Level FlightAware ADS-B
Sat 08:10:32 36.9960 23.6080 113° Southeast 540 621 37,000  Level FlightAware ADS-B
Sat 08:11:12 36.9570 23.7230 113° Southeast 541 623 37,000  Level FlightAware ADS-B
Sat 08:11:58 36.9110 23.8580 113° Southeast 544 626 37,000  Level FlightAware ADS-B
Sat 08:12:38 36.8720 23.9740 113° Southeast 546 628 37,000  Level FlightAware ADS-B
Sat 08:13:20 36.8300 24.0960 113° Southeast 547 629 37,000  Level FlightAware ADS-B
Sat 08:14:04 36.7870 24.2200 113° Southeast 549 632 37,000  Level FlightAware ADS-B
Sat 08:14:46 36.7430 24.3450 114° Southeast 551 634 37,000  Level FlightAware ADS-B
Sat 08:15:41 36.7110 24.4360 114° Southeast 553 636 37,000  Level FlightAware ADS-B
Sat 08:16:22 36.6450 24.6260 113° Southeast 555 639 37,000  Level FlightAware ADS-B
Sat 08:17:06 36.5990 24.7550 114° Southeast 555 639 37,000  Level FlightAware ADS-B
Sat 08:17:46 36.5580 24.8720 114° Southeast 556 640 37,000  Level FlightAware ADS-B
Sat 08:18:31 36.5120 25.0000 114° Southeast 558 642 37,000  Level FlightAware ADS-B
Sat 08:19:13 36.4680 25.1240 114° Southeast 558 642 37,000  Level FlightAware ADS-B
Sat 08:19:53 36.4280 25.2350 114° Southeast 558 642 37,000  Level FlightAware ADS-B
Sat 08:21:05 36.3850 25.3580 113° Southeast 557 641 37,000  Level FlightAware ADS-B
Sat 08:21:43 36.3110 25.5610 114° Southeast 557 641 37,000  Level FlightAware ADS-B
Sat 08:22:28 36.2650 25.6870 114° Southeast 557 641 37,000  Level FlightAware ADS-B
Sat 08:23:09 36.2200 25.8090 115° Southeast 559 643 37,000  Level FlightAware ADS-B
Sat 08:23:48 36.1790 25.9230 114° Southeast 556 640 37,000  Level FlightAware ADS-B
Sat 08:24:32 36.1300 26.0540 115° Southeast 558 642 37,000  Level FlightAware ADS-B
Sat 08:25:08 36.0960 26.1470 114° Southeast 558 642 37,000  Level FlightAware ADS-B
Sat 08:25:59 36.0370 26.3050 115° Southeast 559 643 37,000  Level FlightAware ADS-B
Sat 08:26:39 35.9970 26.4130 115° Southeast 561 646 37,000  Level FlightAware ADS-B
Sat 08:27:19 35.9500 26.5390 115° Southeast 562 647 37,000  Level FlightAware ADS-B
Sat 08:28:04 35.9040 26.6620 115° Southeast 562 647 37,000  Level FlightAware ADS-B
Sat 08:28:45 35.8550 26.7940 115° Southeast 567 652 37,000  Level FlightAware ADS-B
Sat 08:29:23 35.8120 26.9050 116° Southeast 567 652 37,000  Level FlightAware ADS-B
Sat 08:31:08 35.7110 27.1810 114° Southeast 567 652 37,000  Level FlightAware ADS-B
Sat 08:31:49 35.6510 27.3290 116° Southeast 568 654 37,000  Level FlightAware ADS-B
Sat 08:32:29 35.6050 27.4490 115° Southeast 568 654 37,000  Level FlightAware ADS-B
Sat 08:33:19 35.5510 27.5890 115° Southeast 37,000  Level FlightAware ADS-B
Sat 08:34:13 35.4880 27.7530 115° Southeast 37,000  Level FlightAware ADS-B
Sat 08:34:57 35.4360 27.8850 116° Southeast 573 659 37,000  Level FlightAware ADS-B
Sat 08:35:44 35.3820 28.0200 116° Southeast 576 663 37,000  Level FlightAware ADS-B
Sat 08:36:28 35.3310 28.1530 115° Southeast 579 666 37,000  Level FlightAware ADS-B
Sat 08:37:10 35.2820 28.2770 116° Southeast 579 666 37,000  Level FlightAware ADS-B
Sat 08:37:54 35.2310 28.4060 116° Southeast 580 667 37,000  Level FlightAware ADS-B
Sat 08:38:34 35.1840 28.5220 116° Southeast 581 669 37,000  Level FlightAware ADS-B
Sat 08:39:16 35.1340 28.6490 116° Southeast 580 667 37,000  Level FlightAware ADS-B
Sat 08:39:56 35.0950 28.7490 115° Southeast 577 664 37,000  Level FlightAware ADS-B
Sat 08:42:00 34.9457 29.0742 119° Southeast  Level FlightAware Approximate
Sat 08:42:05 34.9480 29.1130 119° Southeast 579 666 37,000  Level FlightAware ADS-B
Sat 08:42:44 34.8900 29.2550 116° Southeast 576 663 37,000  Level FlightAware ADS-B
Sat 08:43:38 34.8320 29.3970 116° Southeast 574 661 37,000  Level FlightAware ADS-B
Sat 08:44:24 34.7780 29.5290 116° Southeast 568 654 37,000  Level FlightAware ADS-B
Sat 08:45:04 34.7250 29.6550 117° Southeast 566 651 37,000  Level FlightAware ADS-B
Sat 08:45:14 34.7160 29.6780 115° Southeast 565 650 37,000  Level FlightAware ADS-B
Sat 08:46:19 34.6370 29.8690 117° Southeast 563 648 37,000  Level FlightAware ADS-B
Sat 08:46:58 34.6010 29.9640 115° Southeast 563 648 37,000  Level FlightAware ADS-B
Sat 08:48:15 34.5010 30.1710 120° Southeast 558 642 37,000  Level FlightAware ADS-B
Sat 08:48:54 34.4370 30.2930 122° Southeast 561 646 37,000  Level FlightAware ADS-B
Sat 08:49:35 34.3830 30.4010 121° Southeast 562 647 37,000  Level FlightAware ADS-B
Sat 08:50:19 34.3210 30.5240 121° Southeast 561 646 37,000  Level FlightAware ADS-B
Sat 08:51:04 34.2610 30.6420 122° Southeast 560 644 37,000  Level FlightAware ADS-B
Sat 08:51:40 34.2130 30.7380 121° Southeast 559 643 37,000  Level FlightAware ADS-B
Sat 08:52:24 34.1530 30.8560 122° Southeast 558 642 37,000  Level FlightAware ADS-B
Sat 08:53:05 34.0980 30.9640 122° Southeast 557 641 37,000  Level FlightAware ADS-B
Sat 08:53:49 34.0390 31.0840 121° Southeast 556 640 37,000  Level FlightAware ADS-B
Sat 08:54:30 33.9840 31.1890 122° Southeast 555 639 37,000  Level FlightAware ADS-B
Sat 08:55:09 33.9360 31.2810 122° Southeast 554 638 37,000  Level FlightAware ADS-B
Sat 08:55:54 33.8710 31.4100 121° Southeast 558 642 37,000  Level FlightAware ADS-B
Sat 08:56:37 33.8150 31.5190 122° Southeast 557 641 37,000  Level FlightAware ADS-B
Sat 08:57:20 33.7530 31.6380 122° Southeast 557 641 37,000  Level FlightAware ADS-B
Sat 08:57:56 33.7050 31.7330 121° Southeast 555 639 37,000  Level FlightAware ADS-B
Sat 08:58:41 33.6420 31.8540 122° Southeast 556 640 37,000  Level FlightAware ADS-B
Sat 08:59:22 33.5890 31.9530 123° Southeast 555 639 37,000  Level FlightAware ADS-B
Sat 09:00:07 33.5350 32.0830 116° Southeast 560 644 37,000  Level FlightAware ADS-B
Sat 09:01:09 33.4950 32.2000 112° Southeast 556 640 37,000 -743 Level FlightAware ADS-B
Sat 09:01:52 33.4310 32.3830 113° Southeast 566 651 35,700 -1,857 Descending FlightAware ADS-B
Sat 09:02:33 33.3880 32.5030 113° Southeast 573 659 34,400 -1,725 Descending FlightAware ADS-B
Sat 09:03:12 33.3470 32.6170 113° Southeast 575 662 33,400 -1,429 Descending FlightAware ADS-B
Sat 09:03:57 33.2880 32.7340 121° Southeast 568 654 32,400 -1,091 Descending FlightAware ADS-B
Sat 09:04:40 33.2220 32.8510 124° Southeast 560 644 31,800 -1,185 Descending FlightAware ADS-B
Sat 09:05:18 33.1700 32.9460 123° Southeast 542 624 30,800 -1,500 Descending FlightAware ADS-B
Sat 09:05:28 33.1570 32.9710 122° Southeast 540 621 30,600 -2,250 Descending FlightAware ADS-B
Sat 09:06:46 33.0470 33.1670 124° Southeast 513 590 27,500 -2,381 Descending FlightAware ADS-B
Sat 09:07:34 32.9850 33.2780 124° Southeast 495 570 25,600 -2,341 Descending FlightAware ADS-B
Sat 09:08:08 32.9430 33.3510 124° Southeast 480 552 24,300 -2,286 Descending FlightAware ADS-B
Sat 09:08:58 32.8820 33.4590 124° Southeast 466 536 22,400 -2,200 Descending FlightAware ADS-B
Sat 09:09:38 32.8330 33.5450 124° Southeast 470 541 21,000 -1,976 Descending FlightAware ADS-B
Sat 09:10:20 32.7780 33.6270 129° Southeast 452 520 19,700 -1,902 Descending FlightAware ADS-B
Sat 09:11:00 32.7260 33.7050 128° Southeast 438 504 18,400 -1,786 Descending FlightAware ADS-B
Sat 09:11:44 32.6710 33.7900 128° Southeast 434 499 17,200 -1,448 Descending FlightAware ADS-B
Sat 09:12:27 32.6320 33.8480 129° Southeast 433 498 16,300 -1,714 Descending FlightAware ADS-B
Sat 09:13:08 32.5710 33.9440 127° Southeast 410 472 14,800 -1,880 Descending FlightAware ADS-B
Sat 09:13:50 32.5220 34.0190 128° Southeast 390 449 13,700 -1,500 Descending FlightAware ADS-B
Sat 09:14:32 32.4780 34.0860 128° Southeast 374 430 12,700 -1,465 Descending FlightAware ADS-B
Sat 09:15:16 32.4310 34.1570 128° Southeast 357 411 11,600 -1,446 Descending FlightAware ADS-B
Sat 09:15:55 32.3910 34.2160 129° Southeast 346 398 10,700 -846 Descending FlightAware ADS-B
Sat 09:16:34 32.3600 34.2650 127° Southeast 343 395 10,500 -593 Descending FlightAware ADS-B
Sat 09:17:16 32.3220 34.3210 129° Southeast 296 341 9,900 -575 Descending FlightAware ADS-B
Sat 09:17:47 32.3010 34.3540 127° Southeast 296 341 9,800 -109 Descending FlightAware ADS-B
Sat 09:18:11 32.2840 34.3800 128° Southeast 296 341 9,800  Level FlightAware ADS-B
Sat 09:18:47 32.2580 34.4190 128° Southeast 296 341 9,800  Level FlightAware ADS-B
Sat 09:19:12 32.2400 34.4460 128° Southeast 296 341 9,800 -2,389 Level FlightAware ADS-B
Sat 09:20:07 32.1860 34.5450 123° Southeast 6,100 -3,108 Descending FlightAware ADS-B
Sat 09:20:35 32.1690 34.5780 121° Southeast 289 333 5,500 -1,429 Descending FlightAware ADS-B
Sat 09:20:49 32.1560 34.6030 122° Southeast 289 333 5,100 -750 Descending FlightAware ADS-B
Sat 09:21:15 32.1390 34.6340 123° Southeast 281 323 5,000 -107 Descending FlightAware ADS-B
Sat 09:21:45 32.1170 34.6750 122° Southeast 270 311 5,000  Level FlightAware ADS-B
Sat 09:22:16 32.0980 34.7100 123° Southeast 250 288 5,000  Level FlightAware ADS-B
Sat 09:22:40 32.0830 34.7370 123° Southeast 247 284 5,000  Level FlightAware ADS-B
Sat 09:23:08 32.0650 34.7670 125° Southeast 246 283 5,000 -207 Level FlightAware ADS-B
Sat 09:23:38 32.0410 34.7970 133° Southeast 242 278 4,800 -333 Descending FlightAware ADS-B
Sat 09:24:02 32.0230 34.8180 135° Southeast 240 276 4,700 -556 Descending FlightAware ADS-B
Sat 09:24:32 31.9980 34.8460 136° Southeast 223 257 4,300 -1,071 Descending FlightAware ADS-B
Sat 09:24:58 31.9810 34.8660 135° Southeast 226 260 3,700 -1,535 Descending FlightAware ADS-B
Sat 09:25:15 31.9730 34.8880 113° Southeast 228 262 3,200 -1,220 Descending FlightAware ADS-B
Sat 09:25:57 31.9800 34.9260 78° East 209 241 2,500 -1,000 Descending FlightAware ADS-B
Sat 09:28:00 32.0000 34.8667 125° Southeast  Level FlightAware Approximate
Sat 09:29:00 32.0095 34.8769 125° Southeast  Level Estimated

Login

Don't have an account? Register now (free) for customized features, flight alerts, and more!